sensor_id;sensor_type;location;lat;lon;timestamp;P1;durP1;ratioP1;P2;durP2;ratioP2
30127;SDS011;16942;53.196;6.592;2023-07-20T00:01:22;3.73;;;2.47;;
30127;SDS011;16942;53.196;6.592;2023-07-20T00:03:48;3.27;;;2.83;;
30127;SDS011;16942;53.196;6.592;2023-07-20T00:06:29;4.57;;;2.90;;
30127;SDS011;16942;53.196;6.592;2023-07-20T00:08:55;6.40;;;3.37;;
30127;SDS011;16942;53.196;6.592;2023-07-20T00:11:24;3.57;;;3.27;;
30127;SDS011;16942;53.196;6.592;2023-07-20T00:13:51;3.60;;;3.30;;
30127;SDS011;16942;53.196;6.592;2023-07-20T00:16:17;4.07;;;3.20;;
30127;SDS011;16942;53.196;6.592;2023-07-20T00:18:43;4.63;;;3.13;;
30127;SDS011;16942;53.196;6.592;2023-07-20T00:21:09;4.93;;;3.30;;
30127;SDS011;16942;53.196;6.592;2023-07-20T00:23:35;3.97;;;3.20;;
30127;SDS011;16942;53.196;6.592;2023-07-20T00:26:01;3.97;;;3.57;;
30127;SDS011;16942;53.196;6.592;2023-07-20T00:28:27;4.37;;;3.23;;
30127;SDS011;16942;53.196;6.592;2023-07-20T00:30:53;4.03;;;3.40;;
30127;SDS011;16942;53.196;6.592;2023-07-20T00:33:19;3.50;;;3.00;;
30127;SDS011;16942;53.196;6.592;2023-07-20T00:35:45;4.77;;;3.23;;
30127;SDS011;16942;53.196;6.592;2023-07-20T00:38:11;3.80;;;3.40;;
30127;SDS011;16942;53.196;6.592;2023-07-20T00:40:38;3.90;;;3.30;;
30127;SDS011;16942;53.196;6.592;2023-07-20T00:43:04;4.30;;;3.07;;
30127;SDS011;16942;53.196;6.592;2023-07-20T00:45:30;2.77;;;2.57;;
30127;SDS011;16942;53.196;6.592;2023-07-20T00:47:56;4.80;;;2.73;;
30127;SDS011;16942;53.196;6.592;2023-07-20T00:50:24;5.13;;;2.50;;
30127;SDS011;16942;53.196;6.592;2023-07-20T00:52:50;3.40;;;3.10;;
30127;SDS011;16942;53.196;6.592;2023-07-20T00:55:16;4.27;;;2.80;;
30127;SDS011;16942;53.196;6.592;2023-07-20T00:57:42;2.53;;;2.33;;
30127;SDS011;16942;53.196;6.592;2023-07-20T01:00:08;3.23;;;2.90;;
30127;SDS011;16942;53.196;6.592;2023-07-20T01:02:34;8.13;;;2.97;;
30127;SDS011;16942;53.196;6.592;2023-07-20T01:05:01;3.10;;;2.53;;
30127;SDS011;16942;53.196;6.592;2023-07-20T01:07:31;3.23;;;2.40;;
30127;SDS011;16942;53.196;6.592;2023-07-20T01:10:02;5.23;;;2.87;;
30127;SDS011;16942;53.196;6.592;2023-07-20T01:12:36;3.43;;;2.77;;
30127;SDS011;16942;53.196;6.592;2023-07-20T01:15:05;3.00;;;2.70;;
30127;SDS011;16942;53.196;6.592;2023-07-20T01:17:32;6.87;;;2.63;;
30127;SDS011;16942;53.196;6.592;2023-07-20T01:19:59;3.87;;;2.47;;
30127;SDS011;16942;53.196;6.592;2023-07-20T01:30:34;2.50;;;2.27;;
30127;SDS011;16942;53.196;6.592;2023-07-20T01:32:51;2.93;;;2.53;;
30127;SDS011;16942;53.196;6.592;2023-07-20T01:35:20;3.60;;;2.60;;
30127;SDS011;16942;53.196;6.592;2023-07-20T01:37:48;3.27;;;2.57;;
30127;SDS011;16942;53.196;6.592;2023-07-20T01:40:15;3.67;;;2.43;;
30127;SDS011;16942;53.196;6.592;2023-07-20T01:42:47;2.67;;;2.47;;
30127;SDS011;16942;53.196;6.592;2023-07-20T01:45:13;3.10;;;2.90;;
30127;SDS011;16942;53.196;6.592;2023-07-20T01:47:39;4.03;;;2.70;;
30127;SDS011;16942;53.196;6.592;2023-07-20T01:50:06;3.53;;;2.87;;
30127;SDS011;16942;53.196;6.592;2023-07-20T01:52:32;3.37;;;2.50;;
30127;SDS011;16942;53.196;6.592;2023-07-20T01:54:58;3.13;;;2.53;;
30127;SDS011;16942;53.196;6.592;2023-07-20T01:57:24;3.00;;;2.70;;
30127;SDS011;16942;53.196;6.592;2023-07-20T01:59:50;3.00;;;2.80;;
30127;SDS011;16942;53.196;6.592;2023-07-20T02:02:16;3.10;;;2.40;;
30127;SDS011;16942;53.196;6.592;2023-07-20T02:04:43;3.10;;;2.80;;
30127;SDS011;16942;53.196;6.592;2023-07-20T02:07:09;5.07;;;2.70;;
30127;SDS011;16942;53.196;6.592;2023-07-20T02:09:35;3.20;;;2.90;;
30127;SDS011;16942;53.196;6.592;2023-07-20T02:12:01;3.83;;;3.33;;
30127;SDS011;16942;53.196;6.592;2023-07-20T02:14:27;4.70;;;3.10;;
30127;SDS011;16942;53.196;6.592;2023-07-20T02:16:53;5.60;;;2.80;;
30127;SDS011;16942;53.196;6.592;2023-07-20T02:19:24;3.70;;;3.20;;
30127;SDS011;16942;53.196;6.592;2023-07-20T02:21:51;4.00;;;3.00;;
30127;SDS011;16942;53.196;6.592;2023-07-20T02:24:17;3.93;;;3.03;;
30127;SDS011;16942;53.196;6.592;2023-07-20T02:26:43;3.73;;;3.30;;
30127;SDS011;16942;53.196;6.592;2023-07-20T02:29:09;3.30;;;3.00;;
30127;SDS011;16942;53.196;6.592;2023-07-20T02:31:38;4.13;;;2.93;;
30127;SDS011;16942;53.196;6.592;2023-07-20T02:34:07;3.10;;;2.80;;
30127;SDS011;16942;53.196;6.592;2023-07-20T02:36:34;5.30;;;2.73;;
30127;SDS011;16942;53.196;6.592;2023-07-20T02:39:00;3.20;;;2.90;;
30127;SDS011;16942;53.196;6.592;2023-07-20T02:41:28;4.70;;;3.10;;
30127;SDS011;16942;53.196;6.592;2023-07-20T02:43:54;4.53;;;2.77;;
30127;SDS011;16942;53.196;6.592;2023-07-20T02:46:21;2.90;;;2.70;;
30127;SDS011;16942;53.196;6.592;2023-07-20T02:48:47;3.87;;;3.07;;
30127;SDS011;16942;53.196;6.592;2023-07-20T02:51:13;3.00;;;2.60;;
30127;SDS011;16942;53.196;6.592;2023-07-20T02:53:39;3.27;;;3.00;;
30127;SDS011;16942;53.196;6.592;2023-07-20T02:56:06;7.63;;;2.93;;
30127;SDS011;16942;53.196;6.592;2023-07-20T02:58:33;3.60;;;3.10;;
30127;SDS011;16942;53.196;6.592;2023-07-20T03:01:03;3.23;;;2.73;;
30127;SDS011;16942;53.196;6.592;2023-07-20T03:03:29;4.00;;;3.20;;
30127;SDS011;16942;53.196;6.592;2023-07-20T03:05:55;3.43;;;2.97;;
30127;SDS011;16942;53.196;6.592;2023-07-20T03:08:24;3.47;;;3.17;;
30127;SDS011;16942;53.196;6.592;2023-07-20T03:10:50;4.60;;;3.23;;
30127;SDS011;16942;53.196;6.592;2023-07-20T03:13:16;3.53;;;3.23;;
30127;SDS011;16942;53.196;6.592;2023-07-20T03:15:42;5.10;;;3.50;;
30127;SDS011;16942;53.196;6.592;2023-07-20T03:18:08;4.10;;;3.70;;
30127;SDS011;16942;53.196;6.592;2023-07-20T03:20:35;5.97;;;3.80;;
30127;SDS011;16942;53.196;6.592;2023-07-20T03:23:01;4.23;;;3.27;;
30127;SDS011;16942;53.196;6.592;2023-07-20T03:25:27;6.97;;;4.03;;
30127;SDS011;16942;53.196;6.592;2023-07-20T03:27:53;4.03;;;3.60;;
30127;SDS011;16942;53.196;6.592;2023-07-20T03:30:19;5.80;;;3.57;;
30127;SDS011;16942;53.196;6.592;2023-07-20T03:32:45;8.80;;;3.67;;
30127;SDS011;16942;53.196;6.592;2023-07-20T03:35:11;5.90;;;3.90;;
30127;SDS011;16942;53.196;6.592;2023-07-20T03:37:37;4.23;;;3.83;;
30127;SDS011;16942;53.196;6.592;2023-07-20T03:40:04;4.87;;;4.00;;
30127;SDS011;16942;53.196;6.592;2023-07-20T03:42:30;4.67;;;3.80;;
30127;SDS011;16942;53.196;6.592;2023-07-20T03:44:56;5.40;;;3.70;;
30127;SDS011;16942;53.196;6.592;2023-07-20T03:47:22;3.83;;;3.43;;
30127;SDS011;16942;53.196;6.592;2023-07-20T03:49:49;3.70;;;3.20;;
30127;SDS011;16942;53.196;6.592;2023-07-20T03:52:15;3.53;;;3.23;;
30127;SDS011;16942;53.196;6.592;2023-07-20T03:54:41;4.70;;;3.63;;
30127;SDS011;16942;53.196;6.592;2023-07-20T03:57:07;4.70;;;3.87;;
30127;SDS011;16942;53.196;6.592;2023-07-20T03:59:34;3.40;;;3.10;;
30127;SDS011;16942;53.196;6.592;2023-07-20T04:02:00;3.40;;;3.10;;
30127;SDS011;16942;53.196;6.592;2023-07-20T04:04:26;4.30;;;3.40;;
30127;SDS011;16942;53.196;6.592;2023-07-20T04:06:53;3.87;;;3.43;;
30127;SDS011;16942;53.196;6.592;2023-07-20T04:09:19;4.20;;;3.27;;
30127;SDS011;16942;53.196;6.592;2023-07-20T04:11:45;5.47;;;3.20;;
30127;SDS011;16942;53.196;6.592;2023-07-20T04:14:11;4.33;;;3.60;;
30127;SDS011;16942;53.196;6.592;2023-07-20T04:16:37;4.07;;;3.23;;
30127;SDS011;16942;53.196;6.592;2023-07-20T04:19:03;3.90;;;3.30;;
30127;SDS011;16942;53.196;6.592;2023-07-20T04:21:29;5.67;;;3.80;;
30127;SDS011;16942;53.196;6.592;2023-07-20T04:23:55;6.67;;;3.80;;
30127;SDS011;16942;53.196;6.592;2023-07-20T04:26:21;8.13;;;3.40;;
30127;SDS011;16942;53.196;6.592;2023-07-20T04:28:47;3.97;;;3.20;;
30127;SDS011;16942;53.196;6.592;2023-07-20T04:31:15;5.30;;;3.07;;
30127;SDS011;16942;53.196;6.592;2023-07-20T04:33:41;6.57;;;3.40;;
30127;SDS011;16942;53.196;6.592;2023-07-20T04:36:07;13.10;;;4.87;;
30127;SDS011;16942;53.196;6.592;2023-07-20T04:38:34;23.33;;;7.10;;
30127;SDS011;16942;53.196;6.592;2023-07-20T04:41:00;22.37;;;6.77;;
30127;SDS011;16942;53.196;6.592;2023-07-20T04:43:27;8.77;;;3.93;;
30127;SDS011;16942;53.196;6.592;2023-07-20T04:45:53;14.63;;;4.10;;
30127;SDS011;16942;53.196;6.592;2023-07-20T04:48:19;3.47;;;2.63;;
30127;SDS011;16942;53.196;6.592;2023-07-20T04:50:45;4.33;;;2.67;;
30127;SDS011;16942;53.196;6.592;2023-07-20T04:53:14;3.30;;;2.77;;
30127;SDS011;16942;53.196;6.592;2023-07-20T04:55:40;3.70;;;2.57;;
30127;SDS011;16942;53.196;6.592;2023-07-20T04:58:06;4.00;;;2.80;;
30127;SDS011;16942;53.196;6.592;2023-07-20T05:00:32;4.00;;;2.50;;
30127;SDS011;16942;53.196;6.592;2023-07-20T05:02:59;3.60;;;2.57;;
30127;SDS011;16942;53.196;6.592;2023-07-20T05:05:25;4.50;;;3.47;;
30127;SDS011;16942;53.196;6.592;2023-07-20T05:07:51;5.83;;;3.03;;
30127;SDS011;16942;53.196;6.592;2023-07-20T05:10:17;3.63;;;2.60;;
30127;SDS011;16942;53.196;6.592;2023-07-20T05:12:43;4.03;;;2.53;;
30127;SDS011;16942;53.196;6.592;2023-07-20T05:15:09;7.23;;;3.07;;
30127;SDS011;16942;53.196;6.592;2023-07-20T05:17:35;12.77;;;3.70;;
30127;SDS011;16942;53.196;6.592;2023-07-20T05:20:01;17.00;;;5.37;;
30127;SDS011;16942;53.196;6.592;2023-07-20T05:22:29;7.03;;;2.67;;
30127;SDS011;16942;53.196;6.592;2023-07-20T05:24:55;27.77;;;8.57;;
30127;SDS011;16942;53.196;6.592;2023-07-20T05:27:21;9.87;;;2.40;;
30127;SDS011;16942;53.196;6.592;2023-07-20T05:29:47;5.87;;;2.60;;
30127;SDS011;16942;53.196;6.592;2023-07-20T05:32:13;3.40;;;2.93;;
30127;SDS011;16942;53.196;6.592;2023-07-20T05:34:39;4.87;;;2.60;;
30127;SDS011;16942;53.196;6.592;2023-07-20T05:37:05;2.37;;;1.90;;
30127;SDS011;16942;53.196;6.592;2023-07-20T05:39:32;3.47;;;2.20;;
30127;SDS011;16942;53.196;6.592;2023-07-20T05:41:58;4.90;;;2.20;;
30127;SDS011;16942;53.196;6.592;2023-07-20T05:44:24;4.53;;;2.37;;
30127;SDS011;16942;53.196;6.592;2023-07-20T05:46:50;4.53;;;2.47;;
30127;SDS011;16942;53.196;6.592;2023-07-20T05:49:16;5.60;;;2.90;;
30127;SDS011;16942;53.196;6.592;2023-07-20T05:51:42;4.43;;;2.10;;
30127;SDS011;16942;53.196;6.592;2023-07-20T05:54:08;2.90;;;1.93;;
30127;SDS011;16942;53.196;6.592;2023-07-20T05:56:34;1.80;;;1.50;;
30127;SDS011;16942;53.196;6.592;2023-07-20T05:59:00;3.27;;;2.00;;
30127;SDS011;16942;53.196;6.592;2023-07-20T06:01:27;4.37;;;1.80;;
30127;SDS011;16942;53.196;6.592;2023-07-20T06:03:53;3.17;;;1.60;;
30127;SDS011;16942;53.196;6.592;2023-07-20T06:06:19;6.00;;;2.63;;
30127;SDS011;16942;53.196;6.592;2023-07-20T06:08:45;3.07;;;1.90;;
30127;SDS011;16942;53.196;6.592;2023-07-20T06:11:11;4.20;;;1.83;;
30127;SDS011;16942;53.196;6.592;2023-07-20T06:13:37;2.83;;;1.37;;
30127;SDS011;16942;53.196;6.592;2023-07-20T06:16:03;2.20;;;1.47;;
30127;SDS011;16942;53.196;6.592;2023-07-20T06:18:29;2.37;;;1.20;;
30127;SDS011;16942;53.196;6.592;2023-07-20T06:20:56;2.20;;;1.30;;
30127;SDS011;16942;53.196;6.592;2023-07-20T06:23:22;3.13;;;1.93;;
30127;SDS011;16942;53.196;6.592;2023-07-20T06:25:48;4.70;;;1.10;;
30127;SDS011;16942;53.196;6.592;2023-07-20T06:28:14;1.63;;;1.50;;
30127;SDS011;16942;53.196;6.592;2023-07-20T06:30:40;1.70;;;1.10;;
30127;SDS011;16942;53.196;6.592;2023-07-20T06:33:06;7.30;;;1.20;;
30127;SDS011;16942;53.196;6.592;2023-07-20T06:35:33;1.40;;;1.17;;
30127;SDS011;16942;53.196;6.592;2023-07-20T06:38:00;5.07;;;1.67;;
30127;SDS011;16942;53.196;6.592;2023-07-20T06:40:26;4.30;;;1.20;;
30127;SDS011;16942;53.196;6.592;2023-07-20T06:42:52;4.57;;;1.33;;
30127;SDS011;16942;53.196;6.592;2023-07-20T06:45:18;3.47;;;1.60;;
30127;SDS011;16942;53.196;6.592;2023-07-20T06:47:44;2.20;;;1.27;;
30127;SDS011;16942;53.196;6.592;2023-07-20T06:50:10;3.53;;;1.93;;
30127;SDS011;16942;53.196;6.592;2023-07-20T06:52:36;5.33;;;2.10;;
30127;SDS011;16942;53.196;6.592;2023-07-20T06:55:02;2.83;;;1.47;;
30127;SDS011;16942;53.196;6.592;2023-07-20T06:57:29;3.47;;;1.47;;
30127;SDS011;16942;53.196;6.592;2023-07-20T06:59:55;3.93;;;1.53;;
30127;SDS011;16942;53.196;6.592;2023-07-20T07:02:21;5.67;;;1.50;;
30127;SDS011;16942;53.196;6.592;2023-07-20T07:04:47;3.07;;;1.73;;
30127;SDS011;16942;53.196;6.592;2023-07-20T07:07:16;3.53;;;1.50;;
30127;SDS011;16942;53.196;6.592;2023-07-20T07:09:42;2.70;;;1.57;;
30127;SDS011;16942;53.196;6.592;2023-07-20T07:12:08;4.83;;;1.60;;
30127;SDS011;16942;53.196;6.592;2023-07-20T07:14:34;6.40;;;1.63;;
30127;SDS011;16942;53.196;6.592;2023-07-20T07:17:00;6.07;;;2.33;;
30127;SDS011;16942;53.196;6.592;2023-07-20T07:19:26;2.50;;;1.30;;
30127;SDS011;16942;53.196;6.592;2023-07-20T07:21:52;5.53;;;1.80;;
30127;SDS011;16942;53.196;6.592;2023-07-20T07:24:18;7.13;;;1.73;;
30127;SDS011;16942;53.196;6.592;2023-07-20T07:26:44;1.83;;;1.60;;
30127;SDS011;16942;53.196;6.592;2023-07-20T07:29:10;5.83;;;1.80;;
30127;SDS011;16942;53.196;6.592;2023-07-20T07:31:36;3.60;;;1.77;;
30127;SDS011;16942;53.196;6.592;2023-07-20T07:34:03;6.43;;;2.00;;
30127;SDS011;16942;53.196;6.592;2023-07-20T07:36:30;5.73;;;2.13;;
30127;SDS011;16942;53.196;6.592;2023-07-20T07:38:56;4.33;;;1.70;;
30127;SDS011;16942;53.196;6.592;2023-07-20T07:41:22;4.50;;;1.70;;
30127;SDS011;16942;53.196;6.592;2023-07-20T07:43:48;3.93;;;2.00;;
30127;SDS011;16942;53.196;6.592;2023-07-20T07:46:14;4.50;;;1.90;;
30127;SDS011;16942;53.196;6.592;2023-07-20T07:48:40;3.03;;;1.67;;
30127;SDS011;16942;53.196;6.592;2023-07-20T07:51:06;5.33;;;1.90;;
30127;SDS011;16942;53.196;6.592;2023-07-20T07:53:32;5.57;;;2.53;;
30127;SDS011;16942;53.196;6.592;2023-07-20T07:56:00;4.20;;;1.63;;
30127;SDS011;16942;53.196;6.592;2023-07-20T07:58:28;9.33;;;1.87;;
30127;SDS011;16942;53.196;6.592;2023-07-20T08:00:54;4.97;;;1.70;;
30127;SDS011;16942;53.196;6.592;2023-07-20T08:03:20;4.37;;;1.90;;
30127;SDS011;16942;53.196;6.592;2023-07-20T08:05:49;5.17;;;1.77;;
30127;SDS011;16942;53.196;6.592;2023-07-20T08:08:15;4.30;;;1.53;;
30127;SDS011;16942;53.196;6.592;2023-07-20T08:10:41;3.93;;;1.57;;
30127;SDS011;16942;53.196;6.592;2023-07-20T08:13:07;3.83;;;1.63;;
30127;SDS011;16942;53.196;6.592;2023-07-20T08:15:33;3.83;;;1.43;;
30127;SDS011;16942;53.196;6.592;2023-07-20T08:17:59;4.97;;;1.50;;
30127;SDS011;16942;53.196;6.592;2023-07-20T08:20:25;3.00;;;1.43;;
30127;SDS011;16942;53.196;6.592;2023-07-20T08:22:54;4.87;;;1.90;;
30127;SDS011;16942;53.196;6.592;2023-07-20T08:25:21;7.70;;;1.70;;
30127;SDS011;16942;53.196;6.592;2023-07-20T08:27:47;5.87;;;1.50;;
30127;SDS011;16942;53.196;6.592;2023-07-20T08:30:13;7.53;;;1.73;;
30127;SDS011;16942;53.196;6.592;2023-07-20T08:32:39;3.53;;;1.83;;
30127;SDS011;16942;53.196;6.592;2023-07-20T08:35:05;5.20;;;1.30;;
30127;SDS011;16942;53.196;6.592;2023-07-20T08:37:31;5.57;;;1.30;;
30127;SDS011;16942;53.196;6.592;2023-07-20T08:39:58;2.10;;;1.13;;
30127;SDS011;16942;53.196;6.592;2023-07-20T08:42:24;2.60;;;1.23;;
30127;SDS011;16942;53.196;6.592;2023-07-20T08:44:50;1.93;;;1.00;;
30127;SDS011;16942;53.196;6.592;2023-07-20T08:47:18;3.37;;;1.10;;
30127;SDS011;16942;53.196;6.592;2023-07-20T08:49:44;1.30;;;0.80;;
30127;SDS011;16942;53.196;6.592;2023-07-20T08:52:12;2.63;;;0.70;;
30127;SDS011;16942;53.196;6.592;2023-07-20T08:54:39;3.50;;;1.10;;
30127;SDS011;16942;53.196;6.592;2023-07-20T08:57:05;1.67;;;1.00;;
30127;SDS011;16942;53.196;6.592;2023-07-20T08:59:31;3.57;;;1.47;;
30127;SDS011;16942;53.196;6.592;2023-07-20T09:01:58;5.50;;;1.00;;
30127;SDS011;16942;53.196;6.592;2023-07-20T09:04:24;3.43;;;1.00;;
30127;SDS011;16942;53.196;6.592;2023-07-20T09:06:50;3.23;;;1.10;;
30127;SDS011;16942;53.196;6.592;2023-07-20T09:09:17;3.93;;;1.07;;
30127;SDS011;16942;53.196;6.592;2023-07-20T09:11:43;2.30;;;0.80;;
30127;SDS011;16942;53.196;6.592;2023-07-20T09:14:09;2.40;;;0.90;;
30127;SDS011;16942;53.196;6.592;2023-07-20T09:16:48;1.47;;;0.77;;
30127;SDS011;16942;53.196;6.592;2023-07-20T09:19:15;2.23;;;0.97;;
30127;SDS011;16942;53.196;6.592;2023-07-20T09:21:45;5.57;;;1.10;;
30127;SDS011;16942;53.196;6.592;2023-07-20T09:24:12;5.77;;;1.30;;
30127;SDS011;16942;53.196;6.592;2023-07-20T09:26:41;1.30;;;0.77;;
30127;SDS011;16942;53.196;6.592;2023-07-20T09:29:08;7.20;;;1.30;;
30127;SDS011;16942;53.196;6.592;2023-07-20T09:31:35;2.63;;;1.00;;
30127;SDS011;16942;53.196;6.592;2023-07-20T09:34:03;3.73;;;1.00;;
30127;SDS011;16942;53.196;6.592;2023-07-20T09:36:32;2.13;;;0.70;;
30127;SDS011;16942;53.196;6.592;2023-07-20T09:38:58;4.47;;;0.90;;
30127;SDS011;16942;53.196;6.592;2023-07-20T09:41:25;3.93;;;0.90;;
30127;SDS011;16942;53.196;6.592;2023-07-20T09:43:51;5.03;;;1.00;;
30127;SDS011;16942;53.196;6.592;2023-07-20T09:46:18;1.77;;;0.97;;
30127;SDS011;16942;53.196;6.592;2023-07-20T09:48:52;3.23;;;0.80;;
30127;SDS011;16942;53.196;6.592;2023-07-20T09:51:22;2.77;;;1.00;;
30127;SDS011;16942;53.196;6.592;2023-07-20T09:53:48;2.47;;;1.00;;
30127;SDS011;16942;53.196;6.592;2023-07-20T09:56:16;2.33;;;1.00;;
30127;SDS011;16942;53.196;6.592;2023-07-20T09:58:43;2.53;;;0.80;;
30127;SDS011;16942;53.196;6.592;2023-07-20T10:01:10;6.07;;;1.52;;
30127;SDS011;16942;53.196;6.592;2023-07-20T10:03:37;2.28;;;0.85;;
30127;SDS011;16942;53.196;6.592;2023-07-20T10:06:05;1.83;;;0.90;;
30127;SDS011;16942;53.196;6.592;2023-07-20T10:08:33;4.88;;;1.63;;
30127;SDS011;16942;53.196;6.592;2023-07-20T10:11:02;2.53;;;0.90;;
30127;SDS011;16942;53.196;6.592;2023-07-20T10:13:28;7.83;;;1.00;;
30127;SDS011;16942;53.196;6.592;2023-07-20T10:15:59;4.27;;;1.20;;
30127;SDS011;16942;53.196;6.592;2023-07-20T10:18:29;0.90;;;0.80;;
30127;SDS011;16942;53.196;6.592;2023-07-20T10:20:56;1.80;;;1.00;;
30127;SDS011;16942;53.196;6.592;2023-07-20T10:23:22;3.17;;;1.48;;
30127;SDS011;16942;53.196;6.592;2023-07-20T10:25:49;3.85;;;1.05;;
30127;SDS011;16942;53.196;6.592;2023-07-20T10:28:16;3.25;;;0.70;;
30127;SDS011;16942;53.196;6.592;2023-07-20T10:30:42;4.93;;;0.90;;
30127;SDS011;16942;53.196;6.592;2023-07-20T10:33:08;1.92;;;0.93;;
30127;SDS011;16942;53.196;6.592;2023-07-20T10:35:51;1.80;;;1.00;;
30127;SDS011;16942;53.196;6.592;2023-07-20T10:38:17;3.25;;;0.80;;
30127;SDS011;16942;53.196;6.592;2023-07-20T10:40:43;2.55;;;0.90;;
30127;SDS011;16942;53.196;6.592;2023-07-20T10:43:19;4.15;;;1.20;;
30127;SDS011;16942;53.196;6.592;2023-07-20T10:45:49;2.40;;;1.00;;
30127;SDS011;16942;53.196;6.592;2023-07-20T10:48:19;1.30;;;0.73;;
30127;SDS011;16942;53.196;6.592;2023-07-20T10:50:48;3.97;;;0.95;;
30127;SDS011;16942;53.196;6.592;2023-07-20T10:53:32;1.52;;;0.90;;
30127;SDS011;16942;53.196;6.592;2023-07-20T10:56:15;1.55;;;1.00;;
30127;SDS011;16942;53.196;6.592;2023-07-20T10:58:45;4.95;;;1.10;;
30127;SDS011;16942;53.196;6.592;2023-07-20T11:01:15;1.40;;;0.82;;
30127;SDS011;16942;53.196;6.592;2023-07-20T11:03:42;4.70;;;0.75;;
30127;SDS011;16942;53.196;6.592;2023-07-20T11:09:09;1.38;;;1.13;;
30127;SDS011;16942;53.196;6.592;2023-07-20T11:11:46;1.33;;;0.85;;
30127;SDS011;16942;53.196;6.592;2023-07-20T11:16:47;2.05;;;1.00;;
30127;SDS011;16942;53.196;6.592;2023-07-20T11:19:17;1.67;;;0.70;;
30127;SDS011;16942;53.196;6.592;2023-07-20T11:21:45;6.47;;;1.15;;
30127;SDS011;16942;53.196;6.592;2023-07-20T11:24:11;1.75;;;0.93;;
30127;SDS011;16942;53.196;6.592;2023-07-20T11:26:45;2.05;;;0.90;;
30127;SDS011;16942;53.196;6.592;2023-07-20T11:29:12;5.95;;;1.00;;
30127;SDS011;16942;53.196;6.592;2023-07-20T11:31:38;2.08;;;1.10;;
30127;SDS011;16942;53.196;6.592;2023-07-20T11:34:07;3.88;;;1.30;;
30127;SDS011;16942;53.196;6.592;2023-07-20T11:36:33;3.53;;;1.00;;
30127;SDS011;16942;53.196;6.592;2023-07-20T11:38:59;2.72;;;0.90;;
30127;SDS011;16942;53.196;6.592;2023-07-20T11:41:25;3.38;;;0.80;;
30127;SDS011;16942;53.196;6.592;2023-07-20T11:43:52;2.35;;;1.00;;
30127;SDS011;16942;53.196;6.592;2023-07-20T11:46:18;5.47;;;0.77;;
30127;SDS011;16942;53.196;6.592;2023-07-20T11:48:44;4.82;;;0.95;;
30127;SDS011;16942;53.196;6.592;2023-07-20T11:51:16;1.60;;;1.05;;
30127;SDS011;16942;53.196;6.592;2023-07-20T11:53:44;2.60;;;1.00;;
30127;SDS011;16942;53.196;6.592;2023-07-20T11:56:11;5.93;;;0.90;;
30127;SDS011;16942;53.196;6.592;2023-07-20T11:58:44;2.05;;;1.10;;
30127;SDS011;16942;53.196;6.592;2023-07-20T12:01:11;4.82;;;0.90;;
30127;SDS011;16942;53.196;6.592;2023-07-20T12:03:38;1.42;;;1.00;;
30127;SDS011;16942;53.196;6.592;2023-07-20T12:06:07;1.90;;;1.10;;
30127;SDS011;16942;53.196;6.592;2023-07-20T12:08:33;2.20;;;1.10;;
30127;SDS011;16942;53.196;6.592;2023-07-20T12:11:00;1.92;;;1.08;;
30127;SDS011;16942;53.196;6.592;2023-07-20T12:16:21;4.53;;;0.80;;
30127;SDS011;16942;53.196;6.592;2023-07-20T12:18:47;3.80;;;1.13;;
30127;SDS011;16942;53.196;6.592;2023-07-20T12:21:13;2.40;;;0.93;;
30127;SDS011;16942;53.196;6.592;2023-07-20T12:23:40;2.88;;;0.73;;
30127;SDS011;16942;53.196;6.592;2023-07-20T12:26:07;3.08;;;1.00;;
30127;SDS011;16942;53.196;6.592;2023-07-20T12:28:40;1.60;;;1.15;;
30127;SDS011;16942;53.196;6.592;2023-07-20T12:31:07;2.20;;;0.93;;
30127;SDS011;16942;53.196;6.592;2023-07-20T12:33:33;3.78;;;1.08;;
30127;SDS011;16942;53.196;6.592;2023-07-20T12:35:59;2.83;;;0.95;;
30127;SDS011;16942;53.196;6.592;2023-07-20T12:38:26;1.60;;;0.80;;
30127;SDS011;16942;53.196;6.592;2023-07-20T12:40:53;4.80;;;0.93;;
30127;SDS011;16942;53.196;6.592;2023-07-20T12:43:23;2.65;;;0.90;;
30127;SDS011;16942;53.196;6.592;2023-07-20T12:45:49;3.55;;;0.85;;
30127;SDS011;16942;53.196;6.592;2023-07-20T12:48:15;5.03;;;1.10;;
30127;SDS011;16942;53.196;6.592;2023-07-20T12:50:41;1.98;;;0.95;;
30127;SDS011;16942;53.196;6.592;2023-07-20T12:53:07;2.65;;;1.00;;
30127;SDS011;16942;53.196;6.592;2023-07-20T12:55:33;2.70;;;1.10;;
30127;SDS011;16942;53.196;6.592;2023-07-20T12:57:59;2.20;;;1.00;;
30127;SDS011;16942;53.196;6.592;2023-07-20T13:00:25;3.40;;;1.00;;
30127;SDS011;16942;53.196;6.592;2023-07-20T13:02:51;2.20;;;1.13;;
30127;SDS011;16942;53.196;6.592;2023-07-20T13:05:18;3.90;;;1.27;;
30127;SDS011;16942;53.196;6.592;2023-07-20T13:07:44;2.15;;;0.95;;
30127;SDS011;16942;53.196;6.592;2023-07-20T13:10:10;2.30;;;1.30;;
30127;SDS011;16942;53.196;6.592;2023-07-20T13:12:37;3.22;;;1.90;;
30127;SDS011;16942;53.196;6.592;2023-07-20T13:15:05;1.40;;;1.00;;
30127;SDS011;16942;53.196;6.592;2023-07-20T13:17:31;2.90;;;0.90;;
30127;SDS011;16942;53.196;6.592;2023-07-20T13:19:58;1.67;;;0.85;;
30127;SDS011;16942;53.196;6.592;2023-07-20T13:22:24;1.77;;;0.80;;
30127;SDS011;16942;53.196;6.592;2023-07-20T13:24:50;2.40;;;1.00;;
30127;SDS011;16942;53.196;6.592;2023-07-20T13:27:17;5.18;;;0.93;;
30127;SDS011;16942;53.196;6.592;2023-07-20T13:29:43;1.50;;;0.90;;
30127;SDS011;16942;53.196;6.592;2023-07-20T13:32:09;3.97;;;1.30;;
30127;SDS011;16942;53.196;6.592;2023-07-20T13:34:36;2.40;;;1.00;;
30127;SDS011;16942;53.196;6.592;2023-07-20T13:37:02;1.33;;;0.90;;
30127;SDS011;16942;53.196;6.592;2023-07-20T13:39:28;1.50;;;0.75;;
30127;SDS011;16942;53.196;6.592;2023-07-20T13:41:54;3.50;;;0.90;;
30127;SDS011;16942;53.196;6.592;2023-07-20T13:44:20;3.88;;;1.10;;
30127;SDS011;16942;53.196;6.592;2023-07-20T13:46:47;2.58;;;0.90;;
30127;SDS011;16942;53.196;6.592;2023-07-20T13:49:13;3.25;;;0.90;;
30127;SDS011;16942;53.196;6.592;2023-07-20T13:51:39;4.70;;;1.45;;
30127;SDS011;16942;53.196;6.592;2023-07-20T13:54:05;1.13;;;0.80;;
30127;SDS011;16942;53.196;6.592;2023-07-20T13:56:31;3.13;;;1.33;;
30127;SDS011;16942;53.196;6.592;2023-07-20T13:58:58;3.03;;;0.98;;
30127;SDS011;16942;53.196;6.592;2023-07-20T14:01:24;1.80;;;0.93;;
30127;SDS011;16942;53.196;6.592;2023-07-20T14:03:50;1.70;;;0.80;;
30127;SDS011;16942;53.196;6.592;2023-07-20T14:06:16;2.17;;;1.10;;
30127;SDS011;16942;53.196;6.592;2023-07-20T14:08:42;2.83;;;0.90;;
30127;SDS011;16942;53.196;6.592;2023-07-20T14:11:11;2.00;;;0.95;;
30127;SDS011;16942;53.196;6.592;2023-07-20T14:13:38;1.15;;;0.95;;
30127;SDS011;16942;53.196;6.592;2023-07-20T14:16:04;2.25;;;0.70;;
30127;SDS011;16942;53.196;6.592;2023-07-20T14:18:30;0.82;;;0.82;;
30127;SDS011;16942;53.196;6.592;2023-07-20T14:20:56;2.65;;;1.20;;
30127;SDS011;16942;53.196;6.592;2023-07-20T14:23:22;1.42;;;1.25;;
30127;SDS011;16942;53.196;6.592;2023-07-20T14:25:48;3.95;;;1.50;;
30127;SDS011;16942;53.196;6.592;2023-07-20T14:28:14;6.18;;;1.35;;
30127;SDS011;16942;53.196;6.592;2023-07-20T14:30:41;2.00;;;1.15;;
30127;SDS011;16942;53.196;6.592;2023-07-20T14:33:07;3.47;;;1.63;;
30127;SDS011;16942;53.196;6.592;2023-07-20T14:35:33;1.02;;;0.90;;
30127;SDS011;16942;53.196;6.592;2023-07-20T14:37:59;1.70;;;1.10;;
30127;SDS011;16942;53.196;6.592;2023-07-20T14:40:25;1.60;;;1.10;;
30127;SDS011;16942;53.196;6.592;2023-07-20T14:42:51;2.33;;;1.45;;
30127;SDS011;16942;53.196;6.592;2023-07-20T14:45:17;2.28;;;1.35;;
30127;SDS011;16942;53.196;6.592;2023-07-20T14:47:44;2.92;;;1.20;;
30127;SDS011;16942;53.196;6.592;2023-07-20T14:50:10;3.38;;;1.45;;
30127;SDS011;16942;53.196;6.592;2023-07-20T14:52:36;1.48;;;0.95;;
30127;SDS011;16942;53.196;6.592;2023-07-20T14:55:02;2.55;;;1.30;;
30127;SDS011;16942;53.196;6.592;2023-07-20T14:57:29;3.15;;;1.27;;
30127;SDS011;16942;53.196;6.592;2023-07-20T14:59:55;2.28;;;1.40;;
30127;SDS011;16942;53.196;6.592;2023-07-20T15:02:21;2.15;;;1.60;;